createdAt,value
2022-08-18T00:00:23.943Z,11.00
2022-08-18T00:05:39.847Z,10.40
2022-08-18T00:10:43.679Z,9.90
2022-08-18T00:15:48.963Z,9.70
2022-08-18T00:20:53.465Z,10.80
2022-08-18T00:25:58.004Z,11.20
2022-08-18T00:31:04.618Z,11.20
2022-08-18T00:36:08.111Z,10.50
2022-08-18T00:41:11.623Z,9.80
2022-08-18T00:46:22.542Z,11.10
2022-08-18T00:51:45.075Z,11.00
2022-08-18T00:56:56.473Z,12.00
2022-08-18T01:02:07.476Z,11.60
2022-08-18T01:07:20.635Z,12.00
2022-08-18T01:12:45.063Z,10.80
2022-08-18T01:18:06.850Z,10.50
2022-08-18T01:23:17.140Z,10.00
2022-08-18T01:28:21.851Z,9.30
2022-08-18T01:33:32.775Z,9.90
2022-08-18T01:38:37.063Z,11.10
2022-08-18T01:43:40.729Z,11.10
2022-08-18T01:48:44.277Z,11.30
2022-08-18T01:53:49.094Z,12.20
2022-08-18T01:58:53.559Z,10.70
2022-08-18T02:04:16.865Z,10.30
2022-08-18T02:09:24.528Z,10.30
2022-08-18T02:14:27.959Z,10.10
2022-08-18T02:19:43.535Z,10.20
2022-08-18T02:24:48.308Z,11.20
2022-08-18T02:29:51.897Z,11.30
2022-08-18T02:34:55.629Z,11.10
2022-08-18T02:39:59.419Z,10.80
2022-08-18T02:45:03.469Z,10.80
2022-08-18T02:50:08.166Z,11.20
2022-08-18T02:55:16.467Z,10.40
2022-08-18T03:00:20.436Z,9.60
2022-08-18T03:05:23.783Z,10.00
2022-08-18T03:10:31.458Z,10.70
2022-08-18T03:15:37.058Z,10.80
2022-08-18T03:20:44.368Z,11.00
2022-08-18T03:25:50.440Z,10.90
2022-08-18T03:30:53.791Z,9.50
2022-08-18T03:35:57.283Z,9.80
2022-08-18T03:41:00.887Z,10.10
2022-08-18T03:46:14.029Z,10.80
2022-08-18T03:51:27.407Z,12.30
2022-08-18T03:56:35.296Z,12.10
2022-08-18T04:01:42.327Z,11.40
2022-08-18T04:06:58.948Z,11.20
2022-08-18T04:12:16.204Z,11.10
2022-08-18T04:17:25.497Z,11.00
2022-08-18T04:22:29.138Z,11.60
2022-08-18T04:27:32.543Z,10.60
2022-08-18T04:32:37.388Z,11.30
2022-08-18T04:37:41.913Z,11.40
2022-08-18T04:42:45.964Z,11.90
2022-08-18T04:47:49.232Z,12.50
2022-08-18T04:53:11.523Z,12.50
2022-08-18T04:58:17.559Z,9.70
2022-08-18T05:03:21.217Z,12.00
2022-08-18T05:08:27.079Z,11.90
2022-08-18T05:13:31.013Z,13.10
2022-08-18T05:18:40.688Z,12.10
2022-08-18T05:23:48.905Z,12.70
2022-08-18T05:29:18.047Z,12.10
2022-08-18T05:34:18.212Z,12.30
2022-08-18T05:39:29.957Z,11.90
2022-08-18T05:44:40.750Z,12.10
2022-08-18T05:49:49.267Z,11.30
2022-08-18T05:55:19.323Z,12.30
2022-08-18T06:00:24.367Z,11.60
2022-08-18T06:05:36.902Z,12.10
2022-08-18T06:10:50.318Z,11.30
2022-08-18T06:16:03.484Z,12.20
2022-08-18T06:21:38.982Z,11.50
2022-08-18T06:27:03.054Z,11.20
2022-08-18T06:32:41.978Z,11.20
2022-08-18T06:38:15.113Z,11.10
2022-08-18T06:43:20.062Z,9.40
2022-08-18T06:48:36.175Z,10.30
2022-08-18T06:54:00.580Z,9.80
2022-08-18T06:59:30.108Z,9.90
2022-08-18T07:04:58.010Z,8.10
2022-08-18T07:10:27.930Z,8.20
2022-08-18T07:15:32.434Z,9.00
2022-08-18T07:21:08.306Z,9.30
2022-08-18T07:26:17.671Z,7.60
2022-08-18T07:31:44.605Z,7.90
2022-08-18T07:36:56.303Z,8.00
2022-08-18T07:42:14.895Z,7.60
2022-08-18T07:48:10.937Z,7.60
2022-08-18T07:53:55.623Z,8.20
2022-08-18T07:59:18.848Z,7.20
2022-08-18T08:04:42.535Z,7.80
2022-08-18T08:10:22.407Z,6.80
2022-08-18T08:16:03.298Z,5.60
2022-08-18T08:21:15.007Z,5.90
2022-08-18T08:26:45.324Z,5.90
2022-08-18T08:32:01.669Z,6.00
2022-08-18T08:37:12.933Z,5.80
2022-08-18T08:42:42.096Z,5.40
2022-08-18T08:48:08.979Z,5.20
2022-08-18T08:53:27.411Z,4.70
2022-08-18T08:58:50.097Z,5.50
2022-08-18T09:04:30.770Z,5.50
2022-08-18T09:10:41.565Z,4.40
2022-08-18T09:16:19.064Z,5.30
2022-08-18T09:22:05.589Z,4.70
2022-08-18T09:27:30.924Z,4.60
2022-08-18T09:33:18.486Z,5.20
2022-08-18T09:38:49.744Z,4.80
2022-08-18T09:44:11.924Z,5.10
2022-08-18T09:49:26.731Z,5.40
2022-08-18T09:54:33.812Z,4.80
2022-08-18T09:59:37.696Z,5.10
2022-08-18T10:04:51.708Z,4.50
2022-08-18T10:11:00.599Z,4.70
2022-08-18T10:16:11.463Z,3.80
2022-08-18T10:21:27.817Z,4.30
2022-08-18T10:26:37.698Z,4.30
2022-08-18T10:32:00.147Z,4.70
2022-08-18T10:37:11.950Z,4.40
2022-08-18T10:48:30.252Z,4.80
2022-08-18T10:53:59.901Z,4.50
2022-08-18T10:59:50.690Z,4.60
2022-08-18T11:04:59.968Z,4.60
2022-08-18T11:10:57.763Z,5.00
2022-08-18T11:15:59.114Z,5.00
2022-08-18T11:21:41.677Z,4.60
2022-08-18T11:26:57.115Z,4.20
2022-08-18T11:32:23.191Z,4.80
2022-08-18T11:37:56.497Z,4.70
2022-08-18T11:43:29.464Z,4.40
2022-08-18T11:48:52.437Z,3.70
2022-08-18T11:54:19.650Z,3.80
2022-08-18T11:59:52.982Z,4.00
2022-08-18T12:04:54.844Z,3.90
2022-08-18T12:10:29.365Z,3.90
2022-08-18T12:15:43.730Z,4.70
2022-08-18T12:20:51.313Z,4.00
2022-08-18T12:25:54.823Z,4.60
2022-08-18T12:30:58.193Z,4.70
2022-08-18T12:36:04.350Z,4.50
2022-08-18T12:41:12.132Z,3.90
2022-08-18T12:46:15.911Z,4.20
2022-08-18T12:51:19.805Z,4.10
2022-08-18T12:56:32.115Z,4.80
2022-08-18T13:01:39.797Z,4.00
2022-08-18T13:06:59.978Z,5.30
2022-08-18T13:12:09.987Z,4.70
2022-08-18T13:17:29.988Z,4.00
2022-08-18T13:22:41.268Z,4.90
2022-08-18T13:27:45.397Z,5.10
2022-08-18T13:33:00.385Z,4.60
2022-08-18T13:38:14.281Z,5.20
2022-08-18T13:43:30.850Z,4.40
2022-08-18T13:48:35.097Z,4.70
2022-08-18T13:53:51.069Z,3.80
2022-08-18T13:59:01.678Z,4.70
2022-08-18T14:04:12.509Z,5.10
2022-08-18T14:09:19.569Z,6.50
2022-08-18T14:14:24.096Z,4.60
2022-08-18T14:19:47.702Z,4.20
2022-08-18T14:25:09.736Z,4.00
2022-08-18T14:30:15.195Z,4.10
2022-08-18T14:35:34.263Z,4.00
2022-08-18T14:40:47.624Z,4.40
2022-08-18T14:45:51.078Z,4.50
2022-08-18T14:50:58.990Z,4.40
2022-08-18T14:56:05.524Z,4.60
2022-08-18T15:01:12.044Z,4.30
2022-08-18T15:06:23.122Z,4.30
2022-08-18T15:11:31.931Z,4.50
2022-08-18T15:16:38.495Z,4.50
2022-08-18T15:22:00.480Z,4.50
2022-08-18T15:27:06.189Z,6.00
2022-08-18T15:32:16.872Z,4.40
2022-08-18T15:37:24.301Z,4.20
2022-08-18T15:42:27.963Z,4.70
2022-08-18T15:47:34.246Z,4.30
2022-08-18T15:52:53.331Z,4.50
2022-08-18T15:57:59.345Z,4.60
2022-08-18T16:03:09.057Z,4.70
2022-08-18T16:08:12.891Z,4.80
2022-08-18T16:13:16.884Z,4.30
2022-08-18T16:18:23.920Z,4.40
2022-08-18T16:23:27.669Z,4.80
2022-08-18T16:28:34.734Z,4.00
2022-08-18T16:33:38.572Z,4.40
2022-08-18T16:38:44.136Z,4.20
2022-08-18T16:43:50.612Z,4.90
2022-08-18T16:48:57.412Z,4.80
2022-08-18T16:54:01.856Z,5.90
2022-08-18T16:59:24.470Z,5.10
2022-08-18T17:04:35.449Z,4.60
2022-08-18T17:09:39.741Z,4.90
2022-08-18T17:14:43.062Z,5.50
2022-08-18T17:19:48.635Z,5.70
2022-08-18T17:25:02.510Z,5.50
2022-08-18T17:30:13.468Z,5.40
2022-08-18T17:35:41.792Z,5.50
2022-08-18T17:40:54.295Z,6.60
2022-08-18T17:46:27.710Z,6.50
2022-08-18T17:51:52.605Z,5.80
2022-08-18T17:57:14.140Z,6.20
2022-08-18T18:02:29.824Z,5.50
2022-08-18T18:07:57.968Z,6.00
2022-08-18T18:13:24.743Z,6.00
2022-08-18T18:18:37.353Z,6.10
2022-08-18T18:23:47.533Z,5.60
2022-08-18T18:28:51.255Z,7.20
2022-08-18T18:34:04.088Z,6.10
2022-08-18T18:39:19.889Z,5.90
2022-08-18T18:44:32.842Z,6.60
2022-08-18T18:50:28.260Z,6.40
2022-08-18T18:56:00.247Z,6.50
2022-08-18T19:01:17.939Z,6.70
2022-08-18T19:06:33.286Z,6.40
2022-08-18T19:12:07.521Z,6.80
2022-08-18T19:17:41.598Z,7.10
2022-08-18T19:22:51.882Z,7.60
2022-08-18T19:28:09.905Z,8.30
2022-08-18T19:33:28.528Z,7.50
2022-08-18T19:39:10.560Z,7.30
2022-08-18T19:44:55.414Z,7.20
2022-08-18T19:50:18.844Z,6.60
2022-08-18T19:56:03.729Z,8.20
2022-08-18T20:01:30.920Z,7.70
2022-08-18T20:07:14.966Z,7.30
2022-08-18T20:12:40.705Z,7.30
2022-08-18T20:17:58.966Z,7.40
2022-08-18T20:23:35.663Z,7.40
2022-08-18T20:28:41.021Z,7.70
2022-08-18T20:34:10.058Z,7.90
2022-08-18T20:39:54.799Z,7.80
2022-08-18T20:45:29.055Z,8.30
2022-08-18T20:51:02.952Z,7.90
2022-08-18T20:56:43.430Z,7.60
2022-08-18T21:02:01.833Z,7.70
2022-08-18T21:07:11.935Z,7.10
2022-08-18T21:12:23.913Z,7.30
2022-08-18T21:17:28.732Z,7.30
2022-08-18T21:22:32.372Z,8.00
2022-08-18T21:27:39.280Z,7.00
2022-08-18T21:32:47.270Z,8.10
2022-08-18T21:38:08.128Z,7.60
2022-08-18T21:43:15.510Z,7.40
2022-08-18T21:48:19.351Z,7.30
2022-08-18T21:53:29.931Z,7.70
2022-08-18T21:58:47.270Z,8.10
2022-08-18T22:03:59.832Z,8.30
2022-08-18T22:09:45.402Z,8.20
2022-08-18T22:14:54.806Z,9.20
2022-08-18T22:20:39.846Z,8.60
2022-08-18T22:25:43.628Z,10.20
2022-08-18T22:30:46.934Z,9.90
2022-08-18T22:35:56.126Z,8.60
2022-08-18T22:41:00.659Z,8.70
2022-08-18T22:46:04.291Z,8.80
2022-08-18T22:51:08.827Z,7.30
2022-08-18T22:56:26.481Z,7.70
2022-08-18T23:01:39.532Z,8.40
2022-08-18T23:06:51.332Z,9.40
2022-08-18T23:11:58.814Z,9.00
2022-08-18T23:17:05.121Z,9.40
2022-08-18T23:22:09.618Z,8.50
2022-08-18T23:27:13.376Z,9.70
2022-08-18T23:32:17.300Z,10.20
2022-08-18T23:37:22.046Z,9.80
2022-08-18T23:42:25.592Z,9.90
2022-08-18T23:47:30.112Z,8.80
2022-08-18T23:52:33.621Z,9.30
2022-08-18T23:57:37.515Z,9.70
